sensor_id;sensor_type;location;lat;lon;timestamp;P1;durP1;ratioP1;P2;durP2;ratioP2
30515;SDS011;17297;54.022;10.760;2023-11-19T00:00:18;8.18;;;5.53;;
30515;SDS011;17297;54.022;10.760;2023-11-19T00:02:44;6.93;;;4.82;;
30515;SDS011;17297;54.022;10.760;2023-11-19T00:05:10;7.38;;;5.95;;
30515;SDS011;17297;54.022;10.760;2023-11-19T00:07:36;6.72;;;5.43;;
30515;SDS011;17297;54.022;10.760;2023-11-19T00:10:06;7.50;;;4.93;;
30515;SDS011;17297;54.022;10.760;2023-11-19T00:12:34;6.15;;;4.82;;
30515;SDS011;17297;54.022;10.760;2023-11-19T00:15:00;5.85;;;4.25;;
30515;SDS011;17297;54.022;10.760;2023-11-19T00:17:25;7.50;;;4.65;;
30515;SDS011;17297;54.022;10.760;2023-11-19T00:19:52;8.45;;;5.60;;
30515;SDS011;17297;54.022;10.760;2023-11-19T00:22:20;7.45;;;4.53;;
30515;SDS011;17297;54.022;10.760;2023-11-19T00:24:47;10.60;;;4.60;;
30515;SDS011;17297;54.022;10.760;2023-11-19T00:27:12;6.18;;;4.25;;
30515;SDS011;17297;54.022;10.760;2023-11-19T00:29:37;6.72;;;4.60;;
30515;SDS011;17297;54.022;10.760;2023-11-19T00:32:03;6.68;;;5.22;;
30515;SDS011;17297;54.022;10.760;2023-11-19T00:34:30;8.70;;;5.28;;
30515;SDS011;17297;54.022;10.760;2023-11-19T00:36:56;6.90;;;4.57;;
30515;SDS011;17297;54.022;10.760;2023-11-19T00:39:21;5.78;;;4.28;;
30515;SDS011;17297;54.022;10.760;2023-11-19T00:41:47;6.13;;;4.32;;
30515;SDS011;17297;54.022;10.760;2023-11-19T00:44:13;8.35;;;4.65;;
30515;SDS011;17297;54.022;10.760;2023-11-19T00:46:38;6.07;;;5.30;;
30515;SDS011;17297;54.022;10.760;2023-11-19T00:49:04;5.50;;;3.95;;
30515;SDS011;17297;54.022;10.760;2023-11-19T00:51:29;8.50;;;5.05;;
30515;SDS011;17297;54.022;10.760;2023-11-19T00:53:56;5.53;;;4.18;;
30515;SDS011;17297;54.022;10.760;2023-11-19T00:56:23;6.47;;;4.43;;
30515;SDS011;17297;54.022;10.760;2023-11-19T00:58:49;6.40;;;4.35;;
30515;SDS011;17297;54.022;10.760;2023-11-19T01:01:14;4.45;;;3.38;;
30515;SDS011;17297;54.022;10.760;2023-11-19T01:03:39;5.57;;;3.97;;
30515;SDS011;17297;54.022;10.760;2023-11-19T01:06:05;4.95;;;3.80;;
30515;SDS011;17297;54.022;10.760;2023-11-19T01:08:31;4.97;;;3.80;;
30515;SDS011;17297;54.022;10.760;2023-11-19T01:10:56;5.00;;;3.25;;
30515;SDS011;17297;54.022;10.760;2023-11-19T01:13:21;5.57;;;3.55;;
30515;SDS011;17297;54.022;10.760;2023-11-19T01:15:47;5.30;;;3.45;;
30515;SDS011;17297;54.022;10.760;2023-11-19T01:18:13;5.25;;;3.72;;
30515;SDS011;17297;54.022;10.760;2023-11-19T01:20:39;4.68;;;4.05;;
30515;SDS011;17297;54.022;10.760;2023-11-19T01:23:04;4.95;;;3.35;;
30515;SDS011;17297;54.022;10.760;2023-11-19T01:25:30;8.02;;;3.92;;
30515;SDS011;17297;54.022;10.760;2023-11-19T01:27:55;3.75;;;2.95;;
30515;SDS011;17297;54.022;10.760;2023-11-19T01:30:23;5.10;;;3.60;;
30515;SDS011;17297;54.022;10.760;2023-11-19T01:32:49;5.30;;;3.25;;
30515;SDS011;17297;54.022;10.760;2023-11-19T01:35:14;3.30;;;2.83;;
30515;SDS011;17297;54.022;10.760;2023-11-19T01:37:40;5.30;;;3.42;;
30515;SDS011;17297;54.022;10.760;2023-11-19T01:40:06;3.28;;;2.67;;
30515;SDS011;17297;54.022;10.760;2023-11-19T01:42:39;3.38;;;2.55;;
30515;SDS011;17297;54.022;10.760;2023-11-19T01:45:05;4.15;;;2.70;;
30515;SDS011;17297;54.022;10.760;2023-11-19T01:47:35;3.22;;;2.47;;
30515;SDS011;17297;54.022;10.760;2023-11-19T01:50:01;3.28;;;2.90;;
30515;SDS011;17297;54.022;10.760;2023-11-19T01:52:32;3.40;;;2.85;;
30515;SDS011;17297;54.022;10.760;2023-11-19T01:55:01;4.22;;;3.53;;
30515;SDS011;17297;54.022;10.760;2023-11-19T01:57:28;3.60;;;2.65;;
30515;SDS011;17297;54.022;10.760;2023-11-19T01:59:53;2.80;;;2.58;;
30515;SDS011;17297;54.022;10.760;2023-11-19T02:02:19;2.67;;;2.38;;
30515;SDS011;17297;54.022;10.760;2023-11-19T02:04:46;3.47;;;2.55;;
30515;SDS011;17297;54.022;10.760;2023-11-19T02:07:15;3.92;;;2.65;;
30515;SDS011;17297;54.022;10.760;2023-11-19T02:09:43;3.30;;;2.55;;
30515;SDS011;17297;54.022;10.760;2023-11-19T02:12:09;2.50;;;2.25;;
30515;SDS011;17297;54.022;10.760;2023-11-19T02:14:37;2.78;;;2.47;;
30515;SDS011;17297;54.022;10.760;2023-11-19T02:17:02;3.47;;;2.72;;
30515;SDS011;17297;54.022;10.760;2023-11-19T02:19:27;4.13;;;2.67;;
30515;SDS011;17297;54.022;10.760;2023-11-19T02:21:54;2.20;;;1.95;;
30515;SDS011;17297;54.022;10.760;2023-11-19T02:24:21;3.00;;;2.30;;
30515;SDS011;17297;54.022;10.760;2023-11-19T02:27:08;2.72;;;1.92;;
30515;SDS011;17297;54.022;10.760;2023-11-19T02:29:41;3.45;;;2.67;;
30515;SDS011;17297;54.022;10.760;2023-11-19T02:32:07;2.65;;;2.13;;
30515;SDS011;17297;54.022;10.760;2023-11-19T02:34:34;2.63;;;1.77;;
30515;SDS011;17297;54.022;10.760;2023-11-19T02:37:00;2.70;;;2.15;;
30515;SDS011;17297;54.022;10.760;2023-11-19T02:39:26;2.83;;;1.77;;
30515;SDS011;17297;54.022;10.760;2023-11-19T02:41:51;2.78;;;1.80;;
30515;SDS011;17297;54.022;10.760;2023-11-19T02:44:18;3.28;;;2.03;;
30515;SDS011;17297;54.022;10.760;2023-11-19T02:46:43;2.60;;;1.65;;
30515;SDS011;17297;54.022;10.760;2023-11-19T02:49:08;2.63;;;2.00;;
30515;SDS011;17297;54.022;10.760;2023-11-19T02:51:34;1.92;;;1.65;;
30515;SDS011;17297;54.022;10.760;2023-11-19T02:54:00;2.05;;;1.52;;
30515;SDS011;17297;54.022;10.760;2023-11-19T02:56:25;3.35;;;1.48;;
30515;SDS011;17297;54.022;10.760;2023-11-19T02:58:51;2.08;;;1.70;;
30515;SDS011;17297;54.022;10.760;2023-11-19T03:01:26;2.00;;;1.52;;
30515;SDS011;17297;54.022;10.760;2023-11-19T03:03:56;1.63;;;1.50;;
30515;SDS011;17297;54.022;10.760;2023-11-19T03:06:22;2.15;;;1.60;;
30515;SDS011;17297;54.022;10.760;2023-11-19T03:08:48;1.55;;;1.45;;
30515;SDS011;17297;54.022;10.760;2023-11-19T03:11:13;2.13;;;1.65;;
30515;SDS011;17297;54.022;10.760;2023-11-19T03:13:39;1.50;;;1.40;;
30515;SDS011;17297;54.022;10.760;2023-11-19T03:16:04;1.70;;;1.25;;
30515;SDS011;17297;54.022;10.760;2023-11-19T03:18:30;1.80;;;1.35;;
30515;SDS011;17297;54.022;10.760;2023-11-19T03:20:55;1.80;;;1.30;;
30515;SDS011;17297;54.022;10.760;2023-11-19T03:23:23;3.20;;;2.08;;
30515;SDS011;17297;54.022;10.760;2023-11-19T03:25:49;2.08;;;1.35;;
30515;SDS011;17297;54.022;10.760;2023-11-19T03:28:14;1.60;;;1.48;;
30515;SDS011;17297;54.022;10.760;2023-11-19T03:30:40;1.77;;;1.20;;
30515;SDS011;17297;54.022;10.760;2023-11-19T03:33:05;1.48;;;1.38;;
30515;SDS011;17297;54.022;10.760;2023-11-19T03:35:30;1.20;;;1.10;;
30515;SDS011;17297;54.022;10.760;2023-11-19T03:37:56;1.73;;;1.63;;
30515;SDS011;17297;54.022;10.760;2023-11-19T03:40:21;1.65;;;1.55;;
30515;SDS011;17297;54.022;10.760;2023-11-19T03:42:47;1.55;;;1.40;;
30515;SDS011;17297;54.022;10.760;2023-11-19T03:45:13;1.30;;;1.20;;
30515;SDS011;17297;54.022;10.760;2023-11-19T03:47:39;1.20;;;1.08;;
30515;SDS011;17297;54.022;10.760;2023-11-19T03:50:05;1.23;;;1.13;;
30515;SDS011;17297;54.022;10.760;2023-11-19T03:52:35;1.50;;;1.10;;
30515;SDS011;17297;54.022;10.760;2023-11-19T03:55:01;1.60;;;1.27;;
30515;SDS011;17297;54.022;10.760;2023-11-19T03:57:28;1.98;;;1.40;;
30515;SDS011;17297;54.022;10.760;2023-11-19T03:59:53;1.63;;;1.40;;
30515;SDS011;17297;54.022;10.760;2023-11-19T04:02:20;0.98;;;0.90;;
30515;SDS011;17297;54.022;10.760;2023-11-19T04:04:46;1.65;;;1.20;;
30515;SDS011;17297;54.022;10.760;2023-11-19T04:07:11;1.27;;;1.17;;
30515;SDS011;17297;54.022;10.760;2023-11-19T04:09:36;2.65;;;1.27;;
30515;SDS011;17297;54.022;10.760;2023-11-19T04:12:02;1.50;;;1.10;;
30515;SDS011;17297;54.022;10.760;2023-11-19T04:14:28;2.20;;;1.27;;
30515;SDS011;17297;54.022;10.760;2023-11-19T04:16:55;1.20;;;1.05;;
30515;SDS011;17297;54.022;10.760;2023-11-19T04:19:20;0.80;;;0.80;;
30515;SDS011;17297;54.022;10.760;2023-11-19T04:21:46;1.30;;;1.20;;
30515;SDS011;17297;54.022;10.760;2023-11-19T04:24:11;0.95;;;0.90;;
30515;SDS011;17297;54.022;10.760;2023-11-19T04:26:40;1.10;;;1.00;;
30515;SDS011;17297;54.022;10.760;2023-11-19T04:29:11;1.20;;;1.02;;
30515;SDS011;17297;54.022;10.760;2023-11-19T04:31:41;1.30;;;1.13;;
30515;SDS011;17297;54.022;10.760;2023-11-19T04:34:07;1.30;;;1.20;;
30515;SDS011;17297;54.022;10.760;2023-11-19T04:36:33;1.17;;;1.08;;
30515;SDS011;17297;54.022;10.760;2023-11-19T04:38:59;1.00;;;1.00;;
30515;SDS011;17297;54.022;10.760;2023-11-19T04:41:25;1.42;;;1.20;;
30515;SDS011;17297;54.022;10.760;2023-11-19T04:43:52;1.63;;;1.00;;
30515;SDS011;17297;54.022;10.760;2023-11-19T04:46:18;0.90;;;0.90;;
30515;SDS011;17297;54.022;10.760;2023-11-19T04:48:44;0.90;;;0.90;;
30515;SDS011;17297;54.022;10.760;2023-11-19T04:51:09;1.10;;;1.00;;
30515;SDS011;17297;54.022;10.760;2023-11-19T04:53:35;1.25;;;0.90;;
30515;SDS011;17297;54.022;10.760;2023-11-19T04:56:00;0.70;;;0.70;;
30515;SDS011;17297;54.022;10.760;2023-11-19T04:58:25;0.90;;;0.90;;
30515;SDS011;17297;54.022;10.760;2023-11-19T05:00:54;0.80;;;0.70;;
30515;SDS011;17297;54.022;10.760;2023-11-19T05:03:19;0.80;;;0.80;;
30515;SDS011;17297;54.022;10.760;2023-11-19T05:05:44;0.98;;;0.90;;
30515;SDS011;17297;54.022;10.760;2023-11-19T05:08:10;0.70;;;0.70;;
30515;SDS011;17297;54.022;10.760;2023-11-19T05:10:36;0.85;;;0.85;;
30515;SDS011;17297;54.022;10.760;2023-11-19T05:13:02;0.95;;;0.90;;
30515;SDS011;17297;54.022;10.760;2023-11-19T05:15:27;0.73;;;0.73;;
30515;SDS011;17297;54.022;10.760;2023-11-19T05:17:53;1.73;;;0.90;;
30515;SDS011;17297;54.022;10.760;2023-11-19T05:20:18;0.88;;;0.85;;
30515;SDS011;17297;54.022;10.760;2023-11-19T05:22:43;0.93;;;0.80;;
30515;SDS011;17297;54.022;10.760;2023-11-19T05:25:10;0.63;;;0.63;;
30515;SDS011;17297;54.022;10.760;2023-11-19T05:27:36;0.50;;;0.50;;
30515;SDS011;17297;54.022;10.760;2023-11-19T05:30:02;0.80;;;0.80;;
30515;SDS011;17297;54.022;10.760;2023-11-19T05:32:28;0.63;;;0.63;;
30515;SDS011;17297;54.022;10.760;2023-11-19T05:34:54;0.98;;;0.80;;
30515;SDS011;17297;54.022;10.760;2023-11-19T05:37:19;0.90;;;0.90;;
30515;SDS011;17297;54.022;10.760;2023-11-19T05:39:45;0.95;;;0.90;;
30515;SDS011;17297;54.022;10.760;2023-11-19T05:42:10;1.10;;;0.90;;
30515;SDS011;17297;54.022;10.760;2023-11-19T05:44:35;1.10;;;0.90;;
30515;SDS011;17297;54.022;10.760;2023-11-19T05:47:01;1.02;;;0.93;;
30515;SDS011;17297;54.022;10.760;2023-11-19T05:49:27;0.95;;;0.95;;
30515;SDS011;17297;54.022;10.760;2023-11-19T05:51:52;1.27;;;1.08;;
30515;SDS011;17297;54.022;10.760;2023-11-19T05:54:20;0.95;;;0.90;;
30515;SDS011;17297;54.022;10.760;2023-11-19T05:56:49;0.80;;;0.80;;
30515;SDS011;17297;54.022;10.760;2023-11-19T05:59:14;1.00;;;0.90;;
30515;SDS011;17297;54.022;10.760;2023-11-19T06:01:43;0.75;;;0.75;;
30515;SDS011;17297;54.022;10.760;2023-11-19T06:04:08;1.80;;;1.02;;
30515;SDS011;17297;54.022;10.760;2023-11-19T06:06:34;1.27;;;1.00;;
30515;SDS011;17297;54.022;10.760;2023-11-19T06:09:00;1.00;;;1.00;;
30515;SDS011;17297;54.022;10.760;2023-11-19T06:11:28;2.13;;;1.05;;
30515;SDS011;17297;54.022;10.760;2023-11-19T06:13:54;0.80;;;0.80;;
30515;SDS011;17297;54.022;10.760;2023-11-19T06:16:20;1.20;;;1.10;;
30515;SDS011;17297;54.022;10.760;2023-11-19T06:18:45;1.05;;;0.95;;
30515;SDS011;17297;54.022;10.760;2023-11-19T06:21:11;0.95;;;0.93;;
30515;SDS011;17297;54.022;10.760;2023-11-19T06:23:37;0.82;;;0.82;;
30515;SDS011;17297;54.022;10.760;2023-11-19T06:26:02;1.10;;;0.90;;
30515;SDS011;17297;54.022;10.760;2023-11-19T06:28:28;1.88;;;1.00;;
30515;SDS011;17297;54.022;10.760;2023-11-19T06:30:53;1.17;;;1.00;;
30515;SDS011;17297;54.022;10.760;2023-11-19T06:33:18;1.10;;;1.00;;
30515;SDS011;17297;54.022;10.760;2023-11-19T06:35:44;1.05;;;0.95;;
30515;SDS011;17297;54.022;10.760;2023-11-19T06:38:10;1.20;;;1.10;;
30515;SDS011;17297;54.022;10.760;2023-11-19T06:40:35;1.13;;;1.02;;
30515;SDS011;17297;54.022;10.760;2023-11-19T06:43:01;1.73;;;1.63;;
30515;SDS011;17297;54.022;10.760;2023-11-19T06:45:28;1.48;;;1.27;;
30515;SDS011;17297;54.022;10.760;2023-11-19T06:47:54;1.30;;;1.20;;
30515;SDS011;17297;54.022;10.760;2023-11-19T06:50:20;4.20;;;1.80;;
30515;SDS011;17297;54.022;10.760;2023-11-19T06:52:45;3.30;;;1.70;;
30515;SDS011;17297;54.022;10.760;2023-11-19T06:55:12;2.47;;;1.90;;
30515;SDS011;17297;54.022;10.760;2023-11-19T06:57:37;1.92;;;1.67;;
30515;SDS011;17297;54.022;10.760;2023-11-19T07:00:03;3.20;;;1.80;;
30515;SDS011;17297;54.022;10.760;2023-11-19T07:02:30;3.97;;;2.03;;
30515;SDS011;17297;54.022;10.760;2023-11-19T07:04:56;2.78;;;1.75;;
30515;SDS011;17297;54.022;10.760;2023-11-19T07:07:22;2.80;;;1.80;;
30515;SDS011;17297;54.022;10.760;2023-11-19T07:09:47;2.63;;;1.73;;
30515;SDS011;17297;54.022;10.760;2023-11-19T07:12:13;2.70;;;1.77;;
30515;SDS011;17297;54.022;10.760;2023-11-19T07:14:39;2.50;;;1.98;;
30515;SDS011;17297;54.022;10.760;2023-11-19T07:17:05;3.30;;;2.20;;
30515;SDS011;17297;54.022;10.760;2023-11-19T07:19:31;7.25;;;2.47;;
30515;SDS011;17297;54.022;10.760;2023-11-19T07:21:56;2.85;;;2.05;;
30515;SDS011;17297;54.022;10.760;2023-11-19T07:24:21;3.45;;;2.38;;
30515;SDS011;17297;54.022;10.760;2023-11-19T07:26:47;3.05;;;2.22;;
30515;SDS011;17297;54.022;10.760;2023-11-19T07:29:12;3.28;;;2.90;;
30515;SDS011;17297;54.022;10.760;2023-11-19T07:31:38;2.85;;;2.42;;
30515;SDS011;17297;54.022;10.760;2023-11-19T07:34:04;4.57;;;2.20;;
30515;SDS011;17297;54.022;10.760;2023-11-19T07:36:31;4.40;;;2.35;;
30515;SDS011;17297;54.022;10.760;2023-11-19T07:38:57;2.63;;;2.30;;
30515;SDS011;17297;54.022;10.760;2023-11-19T07:41:23;3.33;;;2.35;;
30515;SDS011;17297;54.022;10.760;2023-11-19T07:43:50;3.67;;;2.47;;
30515;SDS011;17297;54.022;10.760;2023-11-19T07:46:16;3.83;;;2.88;;
30515;SDS011;17297;54.022;10.760;2023-11-19T07:48:44;3.97;;;2.63;;
30515;SDS011;17297;54.022;10.760;2023-11-19T07:51:12;3.83;;;2.88;;
30515;SDS011;17297;54.022;10.760;2023-11-19T07:53:38;3.92;;;3.00;;
30515;SDS011;17297;54.022;10.760;2023-11-19T07:56:04;3.63;;;2.95;;
30515;SDS011;17297;54.022;10.760;2023-11-19T07:58:30;4.57;;;3.05;;
30515;SDS011;17297;54.022;10.760;2023-11-19T08:00:56;4.00;;;2.72;;
30515;SDS011;17297;54.022;10.760;2023-11-19T08:03:21;4.57;;;3.90;;
30515;SDS011;17297;54.022;10.760;2023-11-19T08:05:49;5.28;;;3.60;;
30515;SDS011;17297;54.022;10.760;2023-11-19T08:08:18;4.50;;;3.38;;
30515;SDS011;17297;54.022;10.760;2023-11-19T08:10:44;4.38;;;3.40;;
30515;SDS011;17297;54.022;10.760;2023-11-19T08:13:12;4.45;;;3.60;;
30515;SDS011;17297;54.022;10.760;2023-11-19T08:15:38;4.05;;;3.25;;
30515;SDS011;17297;54.022;10.760;2023-11-19T08:18:03;5.47;;;3.42;;
30515;SDS011;17297;54.022;10.760;2023-11-19T08:20:28;7.75;;;3.85;;
30515;SDS011;17297;54.022;10.760;2023-11-19T08:22:54;5.13;;;3.30;;
30515;SDS011;17297;54.022;10.760;2023-11-19T08:25:19;6.80;;;3.60;;
30515;SDS011;17297;54.022;10.760;2023-11-19T08:27:44;6.93;;;4.18;;
30515;SDS011;17297;54.022;10.760;2023-11-19T08:30:10;7.97;;;3.90;;
30515;SDS011;17297;54.022;10.760;2023-11-19T08:32:36;5.55;;;4.28;;
30515;SDS011;17297;54.022;10.760;2023-11-19T08:35:01;5.70;;;3.80;;
30515;SDS011;17297;54.022;10.760;2023-11-19T08:37:27;7.40;;;4.40;;
30515;SDS011;17297;54.022;10.760;2023-11-19T08:39:53;4.38;;;3.35;;
30515;SDS011;17297;54.022;10.760;2023-11-19T08:42:18;5.05;;;3.70;;
30515;SDS011;17297;54.022;10.760;2023-11-19T08:44:44;7.07;;;3.60;;
30515;SDS011;17297;54.022;10.760;2023-11-19T08:47:15;4.88;;;3.53;;
30515;SDS011;17297;54.022;10.760;2023-11-19T08:49:43;8.35;;;3.97;;
30515;SDS011;17297;54.022;10.760;2023-11-19T08:52:08;6.97;;;3.13;;
30515;SDS011;17297;54.022;10.760;2023-11-19T08:54:35;5.13;;;3.10;;
30515;SDS011;17297;54.022;10.760;2023-11-19T08:57:01;6.15;;;2.97;;
30515;SDS011;17297;54.022;10.760;2023-11-19T08:59:28;6.30;;;3.00;;
30515;SDS011;17297;54.022;10.760;2023-11-19T09:01:53;8.93;;;3.58;;
30515;SDS011;17297;54.022;10.760;2023-11-19T09:04:19;10.60;;;2.50;;
30515;SDS011;17297;54.022;10.760;2023-11-19T09:06:47;8.20;;;2.47;;
30515;SDS011;17297;54.022;10.760;2023-11-19T09:09:12;9.80;;;3.13;;
30515;SDS011;17297;54.022;10.760;2023-11-19T09:11:38;5.75;;;2.95;;
30515;SDS011;17297;54.022;10.760;2023-11-19T09:14:03;5.78;;;2.35;;
30515;SDS011;17297;54.022;10.760;2023-11-19T09:16:29;7.38;;;2.72;;
30515;SDS011;17297;54.022;10.760;2023-11-19T09:18:54;9.85;;;2.60;;
30515;SDS011;17297;54.022;10.760;2023-11-19T09:21:20;11.52;;;3.97;;
30515;SDS011;17297;54.022;10.760;2023-11-19T09:23:45;5.95;;;2.80;;
30515;SDS011;17297;54.022;10.760;2023-11-19T09:26:13;11.55;;;3.00;;
30515;SDS011;17297;54.022;10.760;2023-11-19T09:28:39;10.85;;;3.53;;
30515;SDS011;17297;54.022;10.760;2023-11-19T09:31:12;9.27;;;4.80;;
30515;SDS011;17297;54.022;10.760;2023-11-19T09:33:38;10.52;;;3.72;;
30515;SDS011;17297;54.022;10.760;2023-11-19T09:36:04;6.38;;;2.97;;
30515;SDS011;17297;54.022;10.760;2023-11-19T09:38:29;6.13;;;3.20;;
30515;SDS011;17297;54.022;10.760;2023-11-19T09:40:54;8.50;;;3.05;;
30515;SDS011;17297;54.022;10.760;2023-11-19T09:43:20;8.98;;;4.03;;
30515;SDS011;17297;54.022;10.760;2023-11-19T09:45:49;8.80;;;3.28;;
30515;SDS011;17297;54.022;10.760;2023-11-19T09:48:18;7.80;;;4.07;;
30515;SDS011;17297;54.022;10.760;2023-11-19T09:50:45;10.88;;;4.38;;
30515;SDS011;17297;54.022;10.760;2023-11-19T09:53:12;15.00;;;4.22;;
30515;SDS011;17297;54.022;10.760;2023-11-19T09:55:38;8.73;;;4.60;;
30515;SDS011;17297;54.022;10.760;2023-11-19T09:58:06;12.20;;;4.07;;
30515;SDS011;17297;54.022;10.760;2023-11-19T10:00:31;11.40;;;3.63;;
30515;SDS011;17297;54.022;10.760;2023-11-19T10:02:57;10.60;;;3.40;;
30515;SDS011;17297;54.022;10.760;2023-11-19T10:05:24;13.15;;;4.65;;
30515;SDS011;17297;54.022;10.760;2023-11-19T10:07:50;11.02;;;3.20;;
30515;SDS011;17297;54.022;10.760;2023-11-19T10:10:15;14.18;;;5.28;;
30515;SDS011;17297;54.022;10.760;2023-11-19T10:12:44;10.85;;;4.10;;
30515;SDS011;17297;54.022;10.760;2023-11-19T10:15:19;9.00;;;4.03;;
30515;SDS011;17297;54.022;10.760;2023-11-19T10:17:47;9.05;;;4.60;;
30515;SDS011;17297;54.022;10.760;2023-11-19T10:20:13;11.52;;;3.50;;
30515;SDS011;17297;54.022;10.760;2023-11-19T10:22:38;7.50;;;3.28;;
30515;SDS011;17297;54.022;10.760;2023-11-19T10:25:04;7.90;;;3.60;;
30515;SDS011;17297;54.022;10.760;2023-11-19T10:27:30;6.75;;;4.05;;
30515;SDS011;17297;54.022;10.760;2023-11-19T10:29:58;6.57;;;3.95;;
30515;SDS011;17297;54.022;10.760;2023-11-19T10:32:24;11.52;;;4.28;;
30515;SDS011;17297;54.022;10.760;2023-11-19T10:34:50;8.43;;;3.65;;
30515;SDS011;17297;54.022;10.760;2023-11-19T10:37:27;5.95;;;3.20;;
30515;SDS011;17297;54.022;10.760;2023-11-19T10:39:54;9.52;;;4.22;;
30515;SDS011;17297;54.022;10.760;2023-11-19T10:42:20;7.60;;;3.65;;
30515;SDS011;17297;54.022;10.760;2023-11-19T10:44:45;8.65;;;3.92;;
30515;SDS011;17297;54.022;10.760;2023-11-19T10:47:11;9.98;;;3.17;;
30515;SDS011;17297;54.022;10.760;2023-11-19T10:49:38;5.95;;;2.95;;
30515;SDS011;17297;54.022;10.760;2023-11-19T10:52:05;8.50;;;2.92;;
30515;SDS011;17297;54.022;10.760;2023-11-19T10:54:31;12.07;;;3.22;;
30515;SDS011;17297;54.022;10.760;2023-11-19T10:56:58;13.13;;;5.00;;
30515;SDS011;17297;54.022;10.760;2023-11-19T10:59:27;5.97;;;3.50;;
30515;SDS011;17297;54.022;10.760;2023-11-19T11:01:54;12.25;;;3.72;;
30515;SDS011;17297;54.022;10.760;2023-11-19T11:04:25;6.95;;;3.17;;
30515;SDS011;17297;54.022;10.760;2023-11-19T11:06:53;14.98;;;3.75;;
30515;SDS011;17297;54.022;10.760;2023-11-19T11:09:20;9.95;;;3.30;;
30515;SDS011;17297;54.022;10.760;2023-11-19T11:11:49;11.93;;;3.22;;
30515;SDS011;17297;54.022;10.760;2023-11-19T11:14:15;14.68;;;3.90;;
30515;SDS011;17297;54.022;10.760;2023-11-19T11:16:43;8.20;;;3.70;;
30515;SDS011;17297;54.022;10.760;2023-11-19T11:19:12;9.15;;;3.40;;
30515;SDS011;17297;54.022;10.760;2023-11-19T11:21:38;11.00;;;4.07;;
30515;SDS011;17297;54.022;10.760;2023-11-19T11:26:41;11.25;;;3.22;;
30515;SDS011;17297;54.022;10.760;2023-11-19T11:29:24;7.47;;;2.60;;
30515;SDS011;17297;54.022;10.760;2023-11-19T11:34:58;13.93;;;3.67;;
30515;SDS011;17297;54.022;10.760;2023-11-19T11:37:44;7.97;;;3.05;;
30515;SDS011;17297;54.022;10.760;2023-11-19T11:40:16;7.97;;;2.80;;
30515;SDS011;17297;54.022;10.760;2023-11-19T11:42:46;6.65;;;3.15;;
30515;SDS011;17297;54.022;10.760;2023-11-19T11:45:12;6.55;;;3.08;;
30515;SDS011;17297;54.022;10.760;2023-11-19T11:56:09;7.82;;;2.53;;
30515;SDS011;17297;54.022;10.760;2023-11-19T11:58:18;6.65;;;2.25;;
30515;SDS011;17297;54.022;10.760;2023-11-19T12:00:44;5.88;;;2.20;;
30515;SDS011;17297;54.022;10.760;2023-11-19T12:03:12;11.07;;;3.05;;
30515;SDS011;17297;54.022;10.760;2023-11-19T12:05:41;7.38;;;2.38;;
30515;SDS011;17297;54.022;10.760;2023-11-19T12:08:09;8.63;;;4.32;;
30515;SDS011;17297;54.022;10.760;2023-11-19T12:10:37;6.22;;;2.33;;
30515;SDS011;17297;54.022;10.760;2023-11-19T12:13:09;9.65;;;2.55;;
30515;SDS011;17297;54.022;10.760;2023-11-19T12:18:21;8.90;;;2.50;;
30515;SDS011;17297;54.022;10.760;2023-11-19T12:20:51;7.57;;;1.80;;
30515;SDS011;17297;54.022;10.760;2023-11-19T12:23:16;9.75;;;2.17;;
30515;SDS011;17297;54.022;10.760;2023-11-19T12:25:42;6.32;;;2.38;;
30515;SDS011;17297;54.022;10.760;2023-11-19T12:28:11;7.28;;;2.58;;
30515;SDS011;17297;54.022;10.760;2023-11-19T12:30:38;11.40;;;2.58;;
30515;SDS011;17297;54.022;10.760;2023-11-19T12:33:07;6.40;;;2.35;;
30515;SDS011;17297;54.022;10.760;2023-11-19T12:35:38;6.45;;;1.88;;
30515;SDS011;17297;54.022;10.760;2023-11-19T12:38:07;7.75;;;2.33;;
30515;SDS011;17297;54.022;10.760;2023-11-19T12:40:32;8.30;;;3.55;;
30515;SDS011;17297;54.022;10.760;2023-11-19T12:42:58;10.15;;;2.65;;
30515;SDS011;17297;54.022;10.760;2023-11-19T12:45:34;8.13;;;2.95;;
30515;SDS011;17297;54.022;10.760;2023-11-19T12:48:09;9.15;;;2.40;;
30515;SDS011;17297;54.022;10.760;2023-11-19T12:50:53;7.15;;;2.28;;
30515;SDS011;17297;54.022;10.760;2023-11-19T12:53:23;7.85;;;2.10;;
30515;SDS011;17297;54.022;10.760;2023-11-19T12:55:50;10.07;;;2.17;;
30515;SDS011;17297;54.022;10.760;2023-11-19T12:58:29;5.85;;;2.63;;
30515;SDS011;17297;54.022;10.760;2023-11-19T13:01:02;8.80;;;2.28;;
30515;SDS011;17297;54.022;10.760;2023-11-19T13:03:32;7.95;;;2.42;;
30515;SDS011;17297;54.022;10.760;2023-11-19T13:06:02;6.82;;;2.38;;
30515;SDS011;17297;54.022;10.760;2023-11-19T13:08:36;8.35;;;2.92;;
30515;SDS011;17297;54.022;10.760;2023-11-19T13:11:06;8.70;;;2.72;;
30515;SDS011;17297;54.022;10.760;2023-11-19T13:13:33;8.40;;;2.80;;
30515;SDS011;17297;54.022;10.760;2023-11-19T13:16:18;5.63;;;2.25;;
30515;SDS011;17297;54.022;10.760;2023-11-19T13:18:44;7.35;;;2.15;;
30515;SDS011;17297;54.022;10.760;2023-11-19T13:21:09;8.25;;;2.85;;
30515;SDS011;17297;54.022;10.760;2023-11-19T13:23:34;6.57;;;2.97;;
30515;SDS011;17297;54.022;10.760;2023-11-19T13:26:03;7.00;;;2.30;;
30515;SDS011;17297;54.022;10.760;2023-11-19T13:28:29;5.90;;;2.30;;
30515;SDS011;17297;54.022;10.760;2023-11-19T13:30:54;9.10;;;2.55;;
30515;SDS011;17297;54.022;10.760;2023-11-19T13:33:19;10.75;;;2.92;;
30515;SDS011;17297;54.022;10.760;2023-11-19T13:35:45;8.98;;;2.30;;
30515;SDS011;17297;54.022;10.760;2023-11-19T13:38:10;9.68;;;2.92;;
30515;SDS011;17297;54.022;10.760;2023-11-19T13:40:35;6.60;;;2.38;;
30515;SDS011;17297;54.022;10.760;2023-11-19T13:43:01;9.07;;;2.50;;
30515;SDS011;17297;54.022;10.760;2023-11-19T13:45:26;7.15;;;2.83;;
30515;SDS011;17297;54.022;10.760;2023-11-19T13:47:51;9.40;;;2.70;;
30515;SDS011;17297;54.022;10.760;2023-11-19T13:50:17;13.57;;;3.55;;
30515;SDS011;17297;54.022;10.760;2023-11-19T13:52:43;11.82;;;3.00;;
30515;SDS011;17297;54.022;10.760;2023-11-19T13:55:11;4.13;;;2.67;;
30515;SDS011;17297;54.022;10.760;2023-11-19T13:57:37;13.23;;;4.93;;
30515;SDS011;17297;54.022;10.760;2023-11-19T14:00:04;9.90;;;2.50;;
30515;SDS011;17297;54.022;10.760;2023-11-19T14:02:34;7.45;;;2.50;;
30515;SDS011;17297;54.022;10.760;2023-11-19T14:04:59;8.48;;;2.40;;
30515;SDS011;17297;54.022;10.760;2023-11-19T14:07:25;12.23;;;2.80;;
30515;SDS011;17297;54.022;10.760;2023-11-19T14:09:50;10.52;;;3.45;;
30515;SDS011;17297;54.022;10.760;2023-11-19T14:12:16;5.07;;;2.17;;
30515;SDS011;17297;54.022;10.760;2023-11-19T14:14:41;6.28;;;2.10;;
30515;SDS011;17297;54.022;10.760;2023-11-19T14:17:07;6.15;;;1.88;;
30515;SDS011;17297;54.022;10.760;2023-11-19T14:19:33;7.97;;;2.47;;
30515;SDS011;17297;54.022;10.760;2023-11-19T14:21:58;7.82;;;2.22;;
30515;SDS011;17297;54.022;10.760;2023-11-19T14:24:24;5.13;;;2.08;;
30515;SDS011;17297;54.022;10.760;2023-11-19T14:26:50;6.32;;;2.22;;
30515;SDS011;17297;54.022;10.760;2023-11-19T14:29:16;6.72;;;2.78;;
30515;SDS011;17297;54.022;10.760;2023-11-19T14:31:42;8.57;;;1.83;;
30515;SDS011;17297;54.022;10.760;2023-11-19T14:34:07;10.98;;;3.33;;
30515;SDS011;17297;54.022;10.760;2023-11-19T14:36:32;7.65;;;2.80;;
30515;SDS011;17297;54.022;10.760;2023-11-19T14:38:58;10.80;;;2.65;;
30515;SDS011;17297;54.022;10.760;2023-11-19T14:41:26;10.27;;;2.42;;
30515;SDS011;17297;54.022;10.760;2023-11-19T14:43:51;13.30;;;3.65;;
30515;SDS011;17297;54.022;10.760;2023-11-19T14:46:17;11.50;;;3.00;;